Time;durP1;ratioP1;P1;durP2;ratioP2;P2;SDS_P1;SDS_P2;PMS_P1;PMS_P2;Temp;Humidity;BMP_temperature;BMP_pressure;BME280_temperature;BME280_humidity;BME280_pressure;Samples;Min_cycle;Max_cycle;Signal;HPM_P1;HPM_P2
2021/01/03 00:00:24;;;;;;;39.27;19.53;;;;;;;;;;5064397;28;20271;-77
2021/01/03 00:02:51;;;;;;;39.77;20.57;;;;;;;;;;5052544;28;20364;-77
2021/01/03 00:05:18;;;;;;;44.67;22.83;;;;;;;;;;5064796;28;20266;-77
2021/01/03 00:07:45;;;;;;;44.70;22.60;;;;;;;;;;5080378;28;20309;-76
2021/01/03 00:10:12;;;;;;;43.10;23.53;;;;;;;;;;5081868;28;20344;-77
2021/01/03 00:12:38;;;;;;;44.90;21.20;;;;;;;;;;5081185;28;20290;-78
2021/01/03 00:15:06;;;;;;;42.93;21.20;;;;;;;;;;5061393;28;20370;-78
2021/01/03 00:17:32;;;;;;;44.43;22.93;;;;;;;;;;5075727;28;20382;-77
2021/01/03 00:19:58;;;;;;;43.77;22.43;;;;;;;;;;5058397;28;20262;-77
2021/01/03 00:22:26;;;;;;;42.10;21.40;;;;;;;;;;5063720;28;20279;-78
2021/01/03 00:24:52;;;;;;;41.57;21.17;;;;;;;;;;5061900;28;20813;-77
2021/01/03 00:27:18;;;;;;;40.33;20.73;;;;;;;;;;5064439;28;20271;-78
2021/01/03 00:29:45;;;;;;;38.73;20.27;;;;;;;;;;5064177;28;20712;-76
2021/01/03 00:32:11;;;;;;;41.23;21.70;;;;;;;;;;5061794;28;20730;-77
2021/01/03 00:34:37;;;;;;;36.77;19.73;;;;;;;;;;5065865;28;20309;-77
2021/01/03 00:37:03;;;;;;;40.17;19.73;;;;;;;;;;5066804;28;20324;-77
2021/01/03 00:39:29;;;;;;;40.73;20.43;;;;;;;;;;5063747;28;20307;-77
2021/01/03 00:41:55;;;;;;;40.10;18.97;;;;;;;;;;5064780;28;20336;-77
2021/01/03 00:44:21;;;;;;;38.17;20.30;;;;;;;;;;5064661;28;20275;-77
2021/01/03 00:46:47;;;;;;;42.37;21.37;;;;;;;;;;5064262;28;21049;-77
2021/01/03 00:49:13;;;;;;;43.77;22.10;;;;;;;;;;5066019;28;20623;-76
2021/01/03 00:51:39;;;;;;;42.40;21.50;;;;;;;;;;5065179;28;20690;-77
2021/01/03 00:54:05;;;;;;;40.50;20.37;;;;;;;;;;5064731;28;20271;-76
2021/01/03 00:56:32;;;;;;;39.07;19.53;;;;;;;;;;5058829;28;20374;-77
2021/01/03 00:58:58;;;;;;;42.07;20.73;;;;;;;;;;5053770;28;20382;-77
2021/01/03 01:01:24;;;;;;;37.40;20.30;;;;;;;;;;5083040;28;20297;-77
2021/01/03 01:03:50;;;;;;;40.80;20.83;;;;;;;;;;5086415;28;20951;-77
2021/01/03 01:06:16;;;;;;;37.97;19.67;;;;;;;;;;5053764;28;20291;-77
2021/01/03 01:08:42;;;;;;;37.77;19.60;;;;;;;;;;5085461;28;20286;-77
2021/01/03 01:11:08;;;;;;;44.30;21.37;;;;;;;;;;5085135;28;20613;-76
2021/01/03 01:13:35;;;;;;;35.80;19.20;;;;;;;;;;5068580;28;20393;-77
2021/01/03 01:16:01;;;;;;;42.13;22.50;;;;;;;;;;5067221;28;21242;-77
2021/01/03 01:18:28;;;;;;;37.27;18.47;;;;;;;;;;5085224;28;20282;-77
2021/01/03 01:20:54;;;;;;;44.20;21.67;;;;;;;;;;5085091;28;20352;-77
2021/01/03 01:23:20;;;;;;;43.40;22.67;;;;;;;;;;5069637;28;20724;-77
2021/01/03 01:25:46;;;;;;;43.43;21.93;;;;;;;;;;5061606;28;20274;-77
2021/01/03 01:28:12;;;;;;;41.87;21.23;;;;;;;;;;5067562;28;20724;-77
2021/01/03 01:30:38;;;;;;;45.83;22.13;;;;;;;;;;5068034;28;20282;-77
2021/01/03 01:33:05;;;;;;;44.33;20.53;;;;;;;;;;5068957;28;20309;-76
2021/01/03 01:35:34;;;;;;;39.30;20.10;;;;;;;;;;5066196;28;20698;-77
2021/01/03 01:38:00;;;;;;;43.97;22.10;;;;;;;;;;5068496;28;20282;-77
2021/01/03 01:40:32;;;;;;;43.60;21.27;;;;;;;;;;5068589;28;20789;-77
2021/01/03 01:42:58;;;;;;;42.47;21.60;;;;;;;;;;5065693;28;20275;-77
2021/01/03 01:45:29;;;;;;;38.57;19.80;;;;;;;;;;5068807;28;20278;-77
2021/01/03 01:47:58;;;;;;;41.00;22.50;;;;;;;;;;5068593;28;20270;-77
2021/01/03 01:50:28;;;;;;;43.63;21.50;;;;;;;;;;5051133;28;20264;-78
2021/01/03 01:52:56;;;;;;;42.20;20.97;;;;;;;;;;5066682;28;20350;-78
2021/01/03 01:55:27;;;;;;;45.93;22.97;;;;;;;;;;5103647;28;20284;-77
2021/01/03 01:58:01;;;;;;;40.03;20.07;;;;;;;;;;5078702;28;20287;-76
2021/01/03 02:00:29;;;;;;;40.43;18.87;;;;;;;;;;5082293;28;20271;-78
2021/01/03 02:03:14;;;;;;;44.87;21.57;;;;;;;;;;5082596;28;20674;-78
2021/01/03 02:05:42;;;;;;;36.37;20.23;;;;;;;;;;5084078;28;20255;-77
2021/01/03 02:08:13;;;;;;;40.30;20.13;;;;;;;;;;5066883;28;20267;-77
2021/01/03 02:10:41;;;;;;;40.60;19.97;;;;;;;;;;5068059;28;20729;-78
2021/01/03 02:13:13;;;;;;;41.63;21.00;;;;;;;;;;5067166;28;20262;-80
2021/01/03 02:15:40;;;;;;;41.00;20.30;;;;;;;;;;5066865;28;20271;-78
2021/01/03 02:18:08;;;;;;;40.33;19.07;;;;;;;;;;5049700;28;20648;-78
2021/01/03 02:20:39;;;;;;;42.20;19.60;;;;;;;;;;5064148;28;20275;-78
2021/01/03 02:23:07;;;;;;;40.63;19.73;;;;;;;;;;5069369;28;20277;-78
2021/01/03 02:25:33;;;;;;;41.87;22.00;;;;;;;;;;5056645;28;20275;-78
2021/01/03 02:28:08;;;;;;;38.97;21.13;;;;;;;;;;5047357;28;20321;-78
2021/01/03 02:30:35;;;;;;;39.83;19.97;;;;;;;;;;5064017;28;20273;-78
2021/01/03 02:33:23;;;;;;;34.43;17.57;;;;;;;;;;5067702;28;20274;-78
2021/01/03 02:35:51;;;;;;;39.73;19.77;;;;;;;;;;5082770;28;20298;-79
2021/01/03 02:38:21;;;;;;;34.07;18.10;;;;;;;;;;5083739;28;20297;-78
2021/01/03 02:40:47;;;;;;;39.03;18.80;;;;;;;;;;5067978;28;20255;-81
2021/01/03 02:43:14;;;;;;;36.83;19.17;;;;;;;;;;5069574;28;20311;-78
2021/01/03 02:45:40;;;;;;;34.47;20.20;;;;;;;;;;5062799;28;20251;-81
2021/01/03 02:48:10;;;;;;;38.03;19.37;;;;;;;;;;5081759;28;20357;-78
2021/01/03 02:50:36;;;;;;;34.27;19.07;;;;;;;;;;5062933;28;20350;-79
2021/01/03 02:53:02;;;;;;;41.97;22.43;;;;;;;;;;5067032;28;20294;-78
2021/01/03 02:55:29;;;;;;;38.27;19.33;;;;;;;;;;5082619;28;20367;-81
2021/01/03 02:57:55;;;;;;;39.27;20.67;;;;;;;;;;5066546;28;20309;-78
2021/01/03 03:00:29;;;;;;;38.97;19.97;;;;;;;;;;5054633;28;20276;-78
2021/01/03 03:02:56;;;;;;;41.10;19.60;;;;;;;;;;5068506;28;20379;-79
2021/01/03 03:05:22;;;;;;;37.40;18.90;;;;;;;;;;5074863;28;20744;-78
2021/01/03 03:07:49;;;;;;;39.13;21.00;;;;;;;;;;5071970;28;20891;-78
2021/01/03 03:10:15;;;;;;;36.27;18.37;;;;;;;;;;5075140;28;20275;-78
2021/01/03 03:12:41;;;;;;;37.00;19.60;;;;;;;;;;5074308;28;20267;-78
2021/01/03 03:15:09;;;;;;;40.43;19.77;;;;;;;;;;5067933;28;20350;-78
2021/01/03 03:17:35;;;;;;;45.70;21.73;;;;;;;;;;5087176;28;20705;-79
2021/01/03 03:20:02;;;;;;;37.70;20.07;;;;;;;;;;5075204;28;20313;-78
2021/01/03 03:22:28;;;;;;;35.20;18.40;;;;;;;;;;5075395;28;20274;-78
2021/01/03 03:24:54;;;;;;;35.97;18.43;;;;;;;;;;5072943;28;20335;-78
2021/01/03 03:27:20;;;;;;;41.80;21.30;;;;;;;;;;5090856;28;20282;-78
2021/01/03 03:29:47;;;;;;;38.77;19.13;;;;;;;;;;5074763;28;20674;-79
2021/01/03 03:32:13;;;;;;;40.07;20.97;;;;;;;;;;5074062;28;20305;-79
2021/01/03 03:34:39;;;;;;;41.47;20.97;;;;;;;;;;5064520;28;20976;-78
2021/01/03 03:37:05;;;;;;;37.57;20.07;;;;;;;;;;5074856;28;20362;-78
2021/01/03 03:39:31;;;;;;;38.87;19.03;;;;;;;;;;5077767;28;20315;-78
2021/01/03 03:41:58;;;;;;;40.63;21.63;;;;;;;;;;5075447;28;20275;-78
2021/01/03 03:44:25;;;;;;;40.87;19.33;;;;;;;;;;5075503;28;20321;-78
2021/01/03 03:46:52;;;;;;;38.37;19.87;;;;;;;;;;5075893;28;20263;-79
2021/01/03 03:49:18;;;;;;;40.37;20.57;;;;;;;;;;5062501;28;20873;-80
2021/01/03 03:51:44;;;;;;;41.03;21.10;;;;;;;;;;5089250;28;20285;-78
2021/01/03 03:54:10;;;;;;;42.03;19.27;;;;;;;;;;5080332;28;20290;-78
2021/01/03 03:56:36;;;;;;;46.37;21.47;;;;;;;;;;5081249;28;20486;-79
2021/01/03 03:59:02;;;;;;;46.07;19.60;;;;;;;;;;5069394;28;20289;-77
2021/01/03 04:01:36;;;;;;;36.73;17.63;;;;;;;;;;5068488;28;20341;-76
2021/01/03 04:04:02;;;;;;;33.30;16.40;;;;;;;;;;5073421;28;20266;-75
2021/01/03 04:06:29;;;;;;;33.10;16.33;;;;;;;;;;5082010;28;20386;-77
2021/01/03 04:08:55;;;;;;;35.03;17.97;;;;;;;;;;5082714;28;20278;-77
2021/01/03 04:11:21;;;;;;;37.37;17.73;;;;;;;;;;5061550;28;20289;-77
2021/01/03 04:13:47;;;;;;;36.30;17.67;;;;;;;;;;5061633;28;20268;-76
2021/01/03 04:16:13;;;;;;;40.80;18.77;;;;;;;;;;5060719;28;20271;-78
2021/01/03 04:18:39;;;;;;;42.93;19.70;;;;;;;;;;5046761;28;20386;-76
2021/01/03 04:21:06;;;;;;;35.97;17.43;;;;;;;;;;5066404;28;20310;-79
2021/01/03 04:23:32;;;;;;;38.20;18.23;;;;;;;;;;5082365;28;20324;-78
2021/01/03 04:25:58;;;;;;;35.90;18.70;;;;;;;;;;5078428;28;20341;-77
2021/01/03 04:28:25;;;;;;;41.67;17.70;;;;;;;;;;5060547;28;20667;-77
2021/01/03 04:30:52;;;;;;;42.73;19.03;;;;;;;;;;5082299;28;20755;-77
2021/01/03 04:33:18;;;;;;;44.93;21.63;;;;;;;;;;5065250;28;20354;-75
2021/01/03 04:35:44;;;;;;;49.13;21.17;;;;;;;;;;5065642;28;20271;-77
2021/01/03 04:38:10;;;;;;;46.63;21.50;;;;;;;;;;5068425;28;20324;-77
2021/01/03 04:40:36;;;;;;;44.30;20.80;;;;;;;;;;5085961;28;20773;-78
2021/01/03 04:43:03;;;;;;;48.20;22.37;;;;;;;;;;5070641;28;20270;-77
2021/01/03 04:45:29;;;;;;;43.73;19.07;;;;;;;;;;5086537;28;20640;-78
2021/01/03 04:47:57;;;;;;;45.40;21.17;;;;;;;;;;5065087;28;20298;-77
2021/01/03 04:50:39;;;;;;;45.10;21.50;;;;;;;;;;5050398;28;20291;-76
2021/01/03 04:53:10;;;;;;;41.10;21.30;;;;;;;;;;5082523;28;20267;-77
2021/01/03 04:55:41;;;;;;;45.20;21.37;;;;;;;;;;5068640;28;20270;-76
2021/01/03 04:58:30;;;;;;;47.70;22.70;;;;;;;;;;5070337;28;20319;-76
2021/01/03 05:00:59;;;;;;;48.27;19.83;;;;;;;;;;5069170;28;20267;-79
2021/01/03 05:03:44;;;;;;;43.10;21.60;;;;;;;;;;5064909;28;20263;-78
2021/01/03 05:06:14;;;;;;;42.40;20.03;;;;;;;;;;5073798;28;20697;-78
2021/01/03 05:08:52;;;;;;;41.03;18.67;;;;;;;;;;5074091;28;20929;-79
2021/01/03 05:11:20;;;;;;;48.50;21.60;;;;;;;;;;5081720;28;20361;-78
2021/01/03 05:13:49;;;;;;;44.43;22.27;;;;;;;;;;5078093;28;20255;-79
2021/01/03 05:16:17;;;;;;;45.67;21.60;;;;;;;;;;5069596;28;20629;-79
2021/01/03 05:18:44;;;;;;;46.67;22.20;;;;;;;;;;5073526;28;20314;-79
2021/01/03 05:21:10;;;;;;;55.10;23.17;;;;;;;;;;5077693;28;20333;-79
2021/01/03 05:23:38;;;;;;;47.33;20.67;;;;;;;;;;5070370;28;20275;-75
2021/01/03 05:26:05;;;;;;;48.90;22.63;;;;;;;;;;5067680;28;20282;-76
2021/01/03 05:28:34;;;;;;;45.90;20.40;;;;;;;;;;5068098;28;20335;-75
2021/01/03 05:31:15;;;;;;;52.07;24.87;;;;;;;;;;5069098;28;20362;-76
2021/01/03 05:33:54;;;;;;;49.13;22.93;;;;;;;;;;5067959;28;20357;-76
2021/01/03 05:36:28;;;;;;;50.87;22.83;;;;;;;;;;5068831;28;20267;-76
2021/01/03 05:38:54;;;;;;;40.77;19.87;;;;;;;;;;5070005;28;20370;-77
2021/01/03 05:41:23;;;;;;;40.63;20.20;;;;;;;;;;5067720;28;20291;-78
2021/01/03 05:43:54;;;;;;;41.63;21.07;;;;;;;;;;5069811;28;20251;-76
2021/01/03 05:46:25;;;;;;;42.70;20.40;;;;;;;;;;5084718;28;20259;-76
2021/01/03 05:48:59;;;;;;;42.63;19.13;;;;;;;;;;5084881;28;20810;-78
2021/01/03 05:51:31;;;;;;;44.37;20.90;;;;;;;;;;5067862;28;20292;-77
2021/01/03 05:54:09;;;;;;;44.23;20.03;;;;;;;;;;5048348;28;20266;-76
2021/01/03 05:56:36;;;;;;;43.20;21.20;;;;;;;;;;5067345;28;20702;-78
2021/01/03 05:59:03;;;;;;;46.80;20.03;;;;;;;;;;5085129;28;20382;-79
2021/01/03 06:01:31;;;;;;;45.67;21.87;;;;;;;;;;5085081;28;20412;-77
2021/01/03 06:04:01;;;;;;;49.67;23.00;;;;;;;;;;5060141;28;20276;-77
2021/01/03 06:06:40;;;;;;;50.70;22.80;;;;;;;;;;5052391;28;20305;-79
2021/01/03 06:09:06;;;;;;;52.50;24.80;;;;;;;;;;5068368;28;20271;-77
2021/01/03 06:11:32;;;;;;;49.10;22.50;;;;;;;;;;5088925;28;20791;-76
2021/01/03 06:13:59;;;;;;;44.63;20.47;;;;;;;;;;5091428;28;20271;-76
2021/01/03 06:16:38;;;;;;;44.43;20.73;;;;;;;;;;5089960;28;20255;-77
2021/01/03 06:19:17;;;;;;;43.97;21.60;;;;;;;;;;5065358;28;20290;-78
2021/01/03 06:21:45;;;;;;;48.47;21.57;;;;;;;;;;5072022;28;20263;-77
2021/01/03 06:24:29;;;;;;;47.07;21.90;;;;;;;;;;5056507;28;20275;-78
2021/01/03 06:27:01;;;;;;;40.10;19.70;;;;;;;;;;5087680;28;20363;-78
2021/01/03 06:29:43;;;;;;;44.37;21.40;;;;;;;;;;5078726;28;20639;-79
2021/01/03 06:32:28;;;;;;;37.27;19.90;;;;;;;;;;5073925;28;20339;-79
2021/01/03 06:35:01;;;;;;;38.60;19.77;;;;;;;;;;5084874;28;20335;-79
2021/01/03 06:37:49;;;;;;;50.80;20.55;;;;;;;;;;5076981;28;20278;-80
2021/01/03 06:40:23;;;;;;;50.47;20.37;;;;;;;;;;5076825;28;20032;-82
2021/01/03 06:42:55;;;;;;;43.83;20.33;;;;;;;;;;5078233;28;20358;-78
2021/01/03 06:45:24;;;;;;;50.73;21.63;;;;;;;;;;5076732;28;20277;-78
2021/01/03 06:48:03;;;;;;;42.47;19.17;;;;;;;;;;5076017;28;20332;-80
2021/01/03 06:50:36;;;;;;;44.03;19.87;;;;;;;;;;5075826;28;20298;-78
2021/01/03 06:53:21;;;;;;;45.83;21.20;;;;;;;;;;5074886;28;20743;-80
2021/01/03 06:55:47;;;;;;;40.00;19.90;;;;;;;;;;5079749;28;20859;-76
2021/01/03 06:58:23;;;;;;;40.37;18.33;;;;;;;;;;5081142;28;20839;-77
2021/01/03 07:00:50;;;;;;;42.53;20.63;;;;;;;;;;5093561;28;20365;-78
2021/01/03 07:03:19;;;;;;;38.87;19.13;;;;;;;;;;5077635;28;20376;-77
2021/01/03 07:05:50;;;;;;;39.60;19.30;;;;;;;;;;5073250;28;20276;-79
2021/01/03 07:08:17;;;;;;;38.13;18.40;;;;;;;;;;5073765;28;20331;-78
2021/01/03 07:10:44;;;;;;;39.20;18.20;;;;;;;;;;5087366;28;20283;-76
2021/01/03 07:13:26;;;;;;;41.03;20.13;;;;;;;;;;5067062;28;20255;-78
2021/01/03 07:15:56;;;;;;;37.10;19.13;;;;;;;;;;5087118;28;20267;-79
2021/01/03 07:18:42;;;;;;;39.27;20.03;;;;;;;;;;5073973;28;20274;-78
2021/01/03 07:21:12;;;;;;;39.40;19.77;;;;;;;;;;5071499;28;20282;-80
2021/01/03 07:23:47;;;;;;;43.87;22.10;;;;;;;;;;5090168;28;20283;-78
2021/01/03 07:26:19;;;;;;;38.93;19.33;;;;;;;;;;5090245;28;20703;-79
2021/01/03 07:28:56;;;;;;;41.47;20.90;;;;;;;;;;5096088;28;20300;-77
2021/01/03 07:31:34;;;;;;;41.10;20.50;;;;;;;;;;5079843;28;20270;-77
2021/01/03 07:34:05;;;;;;;39.60;19.63;;;;;;;;;;5067607;28;20293;-78
2021/01/03 07:36:34;;;;;;;43.07;21.63;;;;;;;;;;5077881;28;20306;-77
2021/01/03 07:39:08;;;;;;;35.67;17.67;;;;;;;;;;5077870;28;20371;-78
2021/01/03 07:41:34;;;;;;;43.30;19.07;;;;;;;;;;5078308;28;20266;-78
2021/01/03 07:44:06;;;;;;;33.10;18.37;;;;;;;;;;5078609;28;20279;-78
2021/01/03 07:46:43;;;;;;;35.37;19.17;;;;;;;;;;5095551;28;20294;-78
2021/01/03 07:49:43;;;;;;;36.87;18.23;;;;;;;;;;5094472;28;20269;-78
2021/01/03 07:52:18;;;;;;;35.87;19.03;;;;;;;;;;5050216;28;20275;-78
2021/01/03 07:54:48;;;;;;;33.83;18.33;;;;;;;;;;5058256;28;20278;-79
2021/01/03 07:57:14;;;;;;;36.67;18.73;;;;;;;;;;5057466;28;20262;-80
2021/01/03 07:59:40;;;;;;;39.77;20.03;;;;;;;;;;5063934;28;20324;-77
2021/01/03 08:02:07;;;;;;;37.10;18.57;;;;;;;;;;5072018;28;21053;-78
2021/01/03 08:04:33;;;;;;;37.97;19.97;;;;;;;;;;5076699;28;20275;-78
2021/01/03 08:07:07;;;;;;;50.37;25.97;;;;;;;;;;5073336;28;20259;-78
2021/01/03 08:09:33;;;;;;;41.75;21.13;;;;;;;;;;5083682;28;20563;-79
2021/01/03 08:12:04;;;;;;;62.63;35.50;;;;;;;;;;5075371;28;20072;-79
2021/01/03 08:14:33;;;;;;;60.87;30.77;;;;;;;;;;5072971;28;20614;-79
2021/01/03 08:17:00;;;;;;;49.07;28.30;;;;;;;;;;5091820;28;20916;-77
2021/01/03 08:19:40;;;;;;;41.27;21.43;;;;;;;;;;5092340;28;20286;-78
2021/01/03 08:22:06;;;;;;;37.10;19.57;;;;;;;;;;5089557;28;20803;-78
2021/01/03 08:24:34;;;;;;;38.70;20.77;;;;;;;;;;5080775;28;20356;-80
2021/01/03 08:27:11;;;;;;;42.00;21.73;;;;;;;;;;5072734;28;20258;-78
2021/01/03 08:29:37;;;;;;;36.87;20.53;;;;;;;;;;5080332;28;20294;-77
2021/01/03 08:32:09;;;;;;;41.10;21.33;;;;;;;;;;5079698;28;20254;-80
2021/01/03 08:34:36;;;;;;;39.47;21.47;;;;;;;;;;5076541;28;20274;-78
2021/01/03 08:37:12;;;;;;;44.00;22.03;;;;;;;;;;5082650;28;20286;-79
2021/01/03 08:39:38;;;;;;;37.60;20.60;;;;;;;;;;5073986;28;20286;-78
2021/01/03 08:42:05;;;;;;;46.47;23.40;;;;;;;;;;5078615;28;20644;-78
2021/01/03 08:44:35;;;;;;;41.20;23.60;;;;;;;;;;5095024;28;20330;-78
2021/01/03 08:47:03;;;;;;;36.70;20.07;;;;;;;;;;5077546;28;20325;-80
2021/01/03 08:49:29;;;;;;;40.73;21.27;;;;;;;;;;5078129;28;20267;-78
2021/01/03 08:52:05;;;;;;;41.23;22.53;;;;;;;;;;5073777;28;21239;-78
2021/01/03 08:54:31;;;;;;;39.87;21.73;;;;;;;;;;5082374;28;20361;-78
2021/01/03 08:56:57;;;;;;;41.67;21.27;;;;;;;;;;5082304;28;20763;-78
2021/01/03 08:59:23;;;;;;;42.40;24.33;;;;;;;;;;5081159;28;20294;-81
2021/01/03 09:01:51;;;;;;;74.07;35.77;;;;;;;;;;5082599;28;20255;-79
2021/01/03 09:04:21;;;;;;;51.60;26.77;;;;;;;;;;5081006;28;20274;-78
2021/01/03 09:07:13;;;;;;;47.53;25.47;;;;;;;;;;5076531;28;20790;-77
2021/01/03 09:09:45;;;;;;;55.60;33.17;;;;;;;;;;5079027;28;20332;-78
2021/01/03 09:12:12;;;;;;;57.43;30.40;;;;;;;;;;5081093;28;20271;-78
2021/01/03 09:14:38;;;;;;;38.57;20.20;;;;;;;;;;5075665;28;20274;-78
2021/01/03 09:17:10;;;;;;;37.73;19.97;;;;;;;;;;5092176;28;20278;-78
2021/01/03 09:19:42;;;;;;;37.80;22.27;;;;;;;;;;5080533;28;20291;-79
2021/01/03 09:22:08;;;;;;;40.33;23.83;;;;;;;;;;5079403;28;20270;-78
2021/01/03 09:24:36;;;;;;;41.07;23.60;;;;;;;;;;5097238;28;20267;-78
2021/01/03 09:27:05;;;;;;;49.50;27.70;;;;;;;;;;5080445;28;20283;-80
2021/01/03 09:29:31;;;;;;;55.80;32.33;;;;;;;;;;5079320;28;20285;-78
2021/01/03 09:31:57;;;;;;;55.77;29.97;;;;;;;;;;5086891;28;20270;-78
2021/01/03 09:34:45;;;;;;;45.70;26.50;;;;;;;;;;5078943;28;20305;-79
2021/01/03 09:37:21;;;;;;;40.13;22.20;;;;;;;;;;5077463;28;20275;-78
2021/01/03 09:39:56;;;;;;;42.30;24.33;;;;;;;;;;5075489;28;20333;-77
2021/01/03 09:42:39;;;;;;;40.37;23.17;;;;;;;;;;5077092;28;20270;-78
2021/01/03 09:45:24;;;;;;;37.07;21.50;;;;;;;;;;5073966;28;20270;-77
2021/01/03 09:47:50;;;;;;;42.33;22.87;;;;;;;;;;5072388;28;20267;-78
2021/01/03 09:50:22;;;;;;;38.37;22.37;;;;;;;;;;5077746;28;20275;-79
2021/01/03 09:52:57;;;;;;;34.93;18.43;;;;;;;;;;5076217;28;20270;-78
2021/01/03 09:55:29;;;;;;;34.53;19.00;;;;;;;;;;5076599;28;20267;-78
2021/01/03 09:57:58;;;;;;;35.30;20.80;;;;;;;;;;5078192;28;20267;-78
2021/01/03 10:00:26;;;;;;;41.50;21.27;;;;;;;;;;5075000;28;20865;-79
2021/01/03 10:02:53;;;;;;;37.67;20.53;;;;;;;;;;5065433;28;20329;-79
2021/01/03 10:05:30;;;;;;;33.43;18.53;;;;;;;;;;5074916;28;20267;-80
2021/01/03 10:08:01;;;;;;;36.40;21.43;;;;;;;;;;5072326;28;20278;-78
2021/01/03 10:10:43;;;;;;;38.87;21.37;;;;;;;;;;5075255;28;20290;-77
2021/01/03 10:13:10;;;;;;;36.83;21.27;;;;;;;;;;5073107;28;20266;-78
2021/01/03 10:15:36;;;;;;;31.80;19.07;;;;;;;;;;5077298;28;20305;-78
2021/01/03 10:18:07;;;;;;;39.17;19.47;;;;;;;;;;5084827;28;20287;-78
2021/01/03 10:20:38;;;;;;;34.70;20.27;;;;;;;;;;5090776;28;20271;-77
2021/01/03 10:23:06;;;;;;;36.37;21.77;;;;;;;;;;5083029;28;20263;-77
2021/01/03 10:25:32;;;;;;;30.63;17.97;;;;;;;;;;5094040;28;20279;-78
2021/01/03 10:28:06;;;;;;;30.83;19.63;;;;;;;;;;5086058;28;20844;-78
2021/01/03 10:30:34;;;;;;;31.80;17.77;;;;;;;;;;5070079;28;21048;-81
2021/01/03 10:33:00;;;;;;;31.73;19.00;;;;;;;;;;5068316;28;20259;-77
2021/01/03 10:35:26;;;;;;;33.60;19.23;;;;;;;;;;5075871;28;20259;-77
2021/01/03 10:37:52;;;;;;;31.70;18.27;;;;;;;;;;5074904;28;20837;-79
2021/01/03 10:40:19;;;;;;;31.50;17.37;;;;;;;;;;5078512;28;20263;-79
2021/01/03 10:42:46;;;;;;;34.70;18.43;;;;;;;;;;5062203;28;20339;-78
2021/01/03 10:45:12;;;;;;;30.33;17.90;;;;;;;;;;5070592;28;20285;-79
2021/01/03 10:47:38;;;;;;;34.60;19.93;;;;;;;;;;5074206;28;20275;-79
2021/01/03 10:50:05;;;;;;;33.70;20.27;;;;;;;;;;5070282;28;20287;-78
2021/01/03 10:52:31;;;;;;;34.07;20.63;;;;;;;;;;5066455;28;20302;-79
2021/01/03 10:54:57;;;;;;;33.97;17.60;;;;;;;;;;5073421;28;20728;-78
2021/01/03 10:57:23;;;;;;;31.57;18.37;;;;;;;;;;5072192;28;20267;-78
2021/01/03 10:59:50;;;;;;;33.07;19.20;;;;;;;;;;5071988;28;20275;-79
2021/01/03 11:02:17;;;;;;;29.97;19.23;;;;;;;;;;5080556;28;20274;-77
2021/01/03 11:04:43;;;;;;;32.03;19.07;;;;;;;;;;5084891;28;20279;-80
2021/01/03 11:07:10;;;;;;;30.07;17.83;;;;;;;;;;5079276;28;20267;-79
2021/01/03 11:09:36;;;;;;;40.90;22.97;;;;;;;;;;5081966;28;20263;-79
2021/01/03 11:12:04;;;;;;;32.93;18.23;;;;;;;;;;5080686;28;20306;-79
2021/01/03 11:14:31;;;;;;;35.87;20.33;;;;;;;;;;5079633;28;20354;-79
2021/01/03 11:16:57;;;;;;;34.83;19.67;;;;;;;;;;5089023;28;20294;-78
2021/01/03 11:19:23;;;;;;;39.20;21.53;;;;;;;;;;5088924;28;20286;-78
2021/01/03 11:21:56;;;;;;;39.80;22.53;;;;;;;;;;5091599;28;20267;-77
2021/01/03 11:24:23;;;;;;;37.63;21.90;;;;;;;;;;5090887;28;20297;-78
2021/01/03 11:26:50;;;;;;;35.53;20.83;;;;;;;;;;5110331;28;20021;-78
2021/01/03 11:29:18;;;;;;;35.00;18.63;;;;;;;;;;5109951;28;20373;-78
2021/01/03 11:31:46;;;;;;;40.77;23.30;;;;;;;;;;5093351;28;20267;-77
2021/01/03 11:34:23;;;;;;;30.90;18.63;;;;;;;;;;5077447;28;20294;-78
2021/01/03 11:36:51;;;;;;;36.67;20.67;;;;;;;;;;5091649;28;20298;-78
2021/01/03 11:39:17;;;;;;;32.50;17.53;;;;;;;;;;5091074;28;20295;-78
2021/01/03 11:41:45;;;;;;;50.17;28.63;;;;;;;;;;5092234;28;20308;-78
2021/01/03 11:44:12;;;;;;;58.23;32.77;;;;;;;;;;5093198;28;20263;-78
2021/01/03 11:46:38;;;;;;;39.07;21.80;;;;;;;;;;5090808;28;20313;-77
2021/01/03 11:49:04;;;;;;;36.77;20.43;;;;;;;;;;5109350;28;20313;-78
2021/01/03 11:51:30;;;;;;;48.77;26.90;;;;;;;;;;5087871;28;20295;-78
2021/01/03 11:53:56;;;;;;;58.50;32.03;;;;;;;;;;5091898;28;20286;-78
2021/01/03 11:56:23;;;;;;;40.50;22.50;;;;;;;;;;5092521;28;20255;-78
2021/01/03 11:58:49;;;;;;;33.43;19.47;;;;;;;;;;5092825;28;20287;-78
2021/01/03 12:01:17;;;;;;;35.63;19.73;;;;;;;;;;5093872;28;20258;-77
2021/01/03 12:03:43;;;;;;;33.60;19.10;;;;;;;;;;5092715;28;20341;-77
2021/01/03 12:06:09;;;;;;;36.40;20.90;;;;;;;;;;5091387;28;20285;-78
2021/01/03 12:08:36;;;;;;;34.17;20.13;;;;;;;;;;5068714;28;20289;-79
2021/01/03 12:11:02;;;;;;;31.10;19.20;;;;;;;;;;5078803;28;20279;-79
2021/01/03 12:13:28;;;;;;;35.77;19.43;;;;;;;;;;5072158;28;20846;-79
2021/01/03 12:15:54;;;;;;;30.33;18.27;;;;;;;;;;5071142;28;20259;-78
2021/01/03 12:18:20;;;;;;;35.47;20.57;;;;;;;;;;5071870;28;20278;-79
2021/01/03 12:20:46;;;;;;;34.97;20.00;;;;;;;;;;5070134;28;20315;-79
2021/01/03 12:23:12;;;;;;;37.90;22.27;;;;;;;;;;5071743;28;20259;-79
2021/01/03 12:25:38;;;;;;;36.97;20.63;;;;;;;;;;5069986;28;20758;-79
2021/01/03 12:28:04;;;;;;;37.57;21.30;;;;;;;;;;5071196;28;20350;-79
2021/01/03 12:30:30;;;;;;;34.53;20.57;;;;;;;;;;5071772;28;20271;-79
2021/01/03 12:32:57;;;;;;;31.40;17.83;;;;;;;;;;5066590;28;20283;-79
2021/01/03 12:35:25;;;;;;;32.63;20.33;;;;;;;;;;5112441;28;20255;-79
2021/01/03 12:37:51;;;;;;;62.20;33.40;;;;;;;;;;5094161;28;20328;-79
2021/01/03 12:40:29;;;;;;;34.60;19.87;;;;;;;;;;5092621;28;20275;-79
2021/01/03 12:43:04;;;;;;;31.43;17.93;;;;;;;;;;5061046;28;20271;-79
2021/01/03 12:45:30;;;;;;;34.63;20.07;;;;;;;;;;5058956;28;20266;-79
2021/01/03 12:47:56;;;;;;;37.13;21.57;;;;;;;;;;5058359;28;21181;-80
2021/01/03 12:50:23;;;;;;;37.30;22.87;;;;;;;;;;5057420;28;20263;-78
2021/01/03 12:52:49;;;;;;;35.10;19.80;;;;;;;;;;5083159;28;20810;-79
2021/01/03 12:55:15;;;;;;;39.67;22.50;;;;;;;;;;5077533;28;20333;-79
2021/01/03 12:57:41;;;;;;;36.43;19.50;;;;;;;;;;5075365;28;20302;-78
2021/01/03 13:00:07;;;;;;;36.03;21.53;;;;;;;;;;5096258;28;20290;-79
2021/01/03 13:02:33;;;;;;;35.37;20.60;;;;;;;;;;5095395;28;20291;-79
2021/01/03 13:04:59;;;;;;;39.87;23.47;;;;;;;;;;5095839;28;20262;-79
2021/01/03 13:07:25;;;;;;;38.77;22.17;;;;;;;;;;5083844;28;20283;-79
2021/01/03 13:09:52;;;;;;;37.13;22.93;;;;;;;;;;5087782;28;20336;-79
2021/01/03 13:12:18;;;;;;;37.37;22.20;;;;;;;;;;5079366;28;20350;-78
2021/01/03 13:14:44;;;;;;;31.03;17.93;;;;;;;;;;5079726;28;20263;-78
2021/01/03 13:17:10;;;;;;;34.17;18.97;;;;;;;;;;5079569;28;20274;-79
2021/01/03 13:19:36;;;;;;;32.33;19.20;;;;;;;;;;5081168;28;20779;-78
2021/01/03 13:22:02;;;;;;;32.23;18.57;;;;;;;;;;5079328;28;20334;-79
2021/01/03 13:24:28;;;;;;;46.90;27.33;;;;;;;;;;5078212;28;20269;-80
2021/01/03 13:26:54;;;;;;;31.47;18.83;;;;;;;;;;5095357;28;20274;-79
2021/01/03 13:29:21;;;;;;;28.67;18.43;;;;;;;;;;5095095;28;20274;-80
2021/01/03 13:31:47;;;;;;;30.33;19.13;;;;;;;;;;5094385;28;20274;-80
2021/01/03 13:34:16;;;;;;;34.53;20.23;;;;;;;;;;5078315;28;20263;-81
2021/01/03 13:36:43;;;;;;;33.47;19.87;;;;;;;;;;5079776;28;20271;-78
2021/01/03 13:39:10;;;;;;;36.00;21.13;;;;;;;;;;5083186;28;20312;-79
2021/01/03 13:41:37;;;;;;;35.67;21.47;;;;;;;;;;5079705;28;20361;-80
2021/01/03 13:44:03;;;;;;;30.53;19.10;;;;;;;;;;5072389;28;20287;-79
2021/01/03 13:46:29;;;;;;;35.47;19.93;;;;;;;;;;5089983;28;21363;-79
2021/01/03 13:48:55;;;;;;;30.70;18.47;;;;;;;;;;5074988;28;20321;-79
2021/01/03 13:51:22;;;;;;;30.40;17.90;;;;;;;;;;5074495;28;20342;-79
2021/01/03 13:53:48;;;;;;;30.13;19.17;;;;;;;;;;5068772;28;20282;-79
2021/01/03 13:56:15;;;;;;;31.97;19.37;;;;;;;;;;5073600;28;20275;-79
2021/01/03 13:58:41;;;;;;;31.53;19.63;;;;;;;;;;5073673;28;20282;-82
2021/01/03 14:01:08;;;;;;;30.53;18.40;;;;;;;;;;5077812;28;20273;-79
2021/01/03 14:03:35;;;;;;;32.17;19.03;;;;;;;;;;5075041;28;20270;-77
2021/01/03 14:06:02;;;;;;;31.83;18.03;;;;;;;;;;5068457;28;20258;-76
2021/01/03 14:08:28;;;;;;;27.47;17.43;;;;;;;;;;5068756;28;20330;-76
2021/01/03 14:10:54;;;;;;;34.93;20.50;;;;;;;;;;5068486;28;20274;-76
2021/01/03 14:13:20;;;;;;;29.30;18.47;;;;;;;;;;5067864;28;20243;-76
2021/01/03 14:15:46;;;;;;;29.83;17.97;;;;;;;;;;5069032;28;20259;-78
2021/01/03 14:18:12;;;;;;;31.00;18.37;;;;;;;;;;5068004;28;20274;-77
2021/01/03 14:20:38;;;;;;;30.10;18.17;;;;;;;;;;5067885;28;20259;-76
2021/01/03 14:23:05;;;;;;;27.50;17.00;;;;;;;;;;5068814;28;20340;-76
2021/01/03 14:25:31;;;;;;;30.70;18.40;;;;;;;;;;5084554;28;20667;-76